Terminal Aerodrome Forecast
Issued by NWS Atlanta, GA

Home | Current Version | Previous Version | Text Only | Print | Product List | Glossary On
Versions: 1 2 3 4 5 6 7 8 9 10 11 12 13 14 15 16
000
FTUS42 KFFC 211100
TAFCSG
TAF
KCSG 211133Z 2112/2212 00000KT P6SM SKC
     FM211500 30005KT P6SM SKC
     FM211800 32008G14KT P6SM FEW030
     FM220000 34003KT P6SM SKC=

USA.gov is the U.S. government's official web portal to all federal, state and local government web resources and services.